Time;durP1;ratioP1;P1;durP2;ratioP2;P2;SDS_P1;SDS_P2;PMS_P1;PMS_P2;Temp;Humidity;BMP_temperature;BMP_pressure;BME280_temperature;BME280_humidity;BME280_pressure;Samples;Min_cycle;Max_cycle;Signal;HPM_P1;HPM_P2
2021/12/29 00:00:31;;;;;;;2.67;0.80;;;10.30;99.90;;;;;;5069233;28;20196;-77
2021/12/29 00:03:00;;;;;;;1.53;0.80;;;10.40;99.90;;;;;;5070505;28;20196;-78
2021/12/29 00:05:28;;;;;;;4.97;0.70;;;10.40;99.90;;;;;;5068600;28;20219;-79
2021/12/29 00:07:53;;;;;;;3.90;0.60;;;10.30;99.90;;;;;;5068959;28;20188;-75
2021/12/29 00:10:26;;;;;;;2.73;0.80;;;10.40;99.90;;;;;;5052459;28;20227;-75
2021/12/29 00:12:55;;;;;;;2.77;0.73;;;10.40;99.90;;;;;;5070825;28;20195;-75
2021/12/29 00:15:25;;;;;;;1.63;1.13;;;10.40;99.90;;;;;;5068722;28;20216;-76
2021/12/29 00:17:51;;;;;;;1.93;0.77;;;10.40;99.90;;;;;;5071128;28;20275;-79
2021/12/29 00:20:22;;;;;;;4.47;0.90;;;10.40;99.90;;;;;;5069466;28;20330;-79
2021/12/29 00:22:48;;;;;;;2.70;0.60;;;10.30;99.90;;;;;;5070929;28;20196;-75
2021/12/29 00:25:14;;;;;;;2.13;0.63;;;10.10;99.90;;;;;;5073165;28;20641;-79
2021/12/29 00:27:40;;;;;;;1.00;0.53;;;10.20;99.90;;;;;;5073362;28;20188;-80
2021/12/29 00:30:10;;;;;;;1.70;0.70;;;10.10;99.90;;;;;;5074705;28;20196;-75
2021/12/29 00:32:36;;;;;;;0.83;0.50;;;10.20;99.90;;;;;;5074842;28;20564;-78
2021/12/29 00:35:03;;;;;;;1.67;0.60;;;10.30;99.90;;;;;;5056536;28;20196;-77
2021/12/29 00:37:29;;;;;;;0.93;0.43;;;10.30;99.90;;;;;;5073228;28;20234;-74
2021/12/29 00:39:55;;;;;;;1.87;0.50;;;10.30;99.90;;;;;;5039617;28;20277;-74
2021/12/29 00:42:21;;;;;;;0.90;0.40;;;10.20;99.90;;;;;;5074430;28;20177;-78
2021/12/29 00:44:46;;;;;;;1.60;0.37;;;10.30;99.90;;;;;;5072835;28;20204;-74
2021/12/29 00:47:13;;;;;;;1.87;0.60;;;10.20;99.90;;;;;;5072647;28;20229;-79
2021/12/29 00:49:40;;;;;;;6.03;0.90;;;10.30;99.90;;;;;;5056147;28;20621;-77
2021/12/29 00:52:07;;;;;;;2.13;0.80;;;10.20;99.90;;;;;;5072741;28;20199;-74
2021/12/29 00:54:38;;;;;;;2.57;0.50;;;10.30;99.90;;;;;;5055804;28;20295;-79
2021/12/29 00:57:05;;;;;;;0.97;0.50;;;10.40;99.90;;;;;;5072275;28;20200;-78
2021/12/29 00:59:31;;;;;;;1.63;0.60;;;10.20;99.90;;;;;;5072861;28;20199;-74
2021/12/29 01:01:57;;;;;;;3.07;0.63;;;10.30;99.90;;;;;;5072570;28;20678;-74
2021/12/29 01:04:23;;;;;;;1.37;0.63;;;10.30;99.90;;;;;;5073827;28;20257;-78
2021/12/29 01:06:49;;;;;;;1.43;0.53;;;10.20;99.90;;;;;;5071986;28;20210;-76
2021/12/29 01:09:15;;;;;;;3.33;0.50;;;10.20;99.90;;;;;;5072515;28;20635;-74
2021/12/29 01:11:41;;;;;;;0.80;0.57;;;10.10;99.90;;;;;;5073903;28;20192;-75
2021/12/29 01:14:08;;;;;;;0.77;0.40;;;10.10;99.90;;;;;;5072475;28;20220;-78
2021/12/29 01:16:38;;;;;;;2.23;0.50;;;10.00;99.90;;;;;;5055708;28;20207;-79
2021/12/29 01:19:08;;;;;;;3.00;0.60;;;10.20;99.90;;;;;;5055701;28;20203;-75
2021/12/29 01:21:35;;;;;;;2.13;0.70;;;10.10;99.90;;;;;;5073879;28;20200;-79
2021/12/29 01:24:03;;;;;;;0.87;0.40;;;10.10;99.90;;;;;;5073748;28;20287;-74
2021/12/29 01:26:29;;;;;;;0.97;0.50;;;10.10;99.90;;;;;;5072307;28;20230;-78
2021/12/29 01:28:55;;;;;;;1.03;0.40;;;10.00;99.90;;;;;;5072316;28;20193;-78
2021/12/29 01:31:21;;;;;;;1.40;0.40;;;10.00;99.90;;;;;;5038827;28;20251;-78
2021/12/29 01:33:47;;;;;;;0.47;0.30;;;10.20;99.90;;;;;;5072198;28;20200;-78
2021/12/29 01:36:13;;;;;;;1.10;0.50;;;10.20;99.90;;;;;;5072346;28;20195;-78
2021/12/29 01:38:38;;;;;;;1.33;0.40;;;10.30;99.90;;;;;;5053063;28;20204;-75
2021/12/29 01:41:05;;;;;;;0.60;0.30;;;10.20;99.90;;;;;;5058099;28;20238;-79
2021/12/29 01:43:30;;;;;;;4.83;0.70;;;10.10;99.90;;;;;;5072699;28;20826;-76
2021/12/29 01:45:56;;;;;;;1.20;0.50;;;10.10;99.90;;;;;;5071662;28;20223;-79
2021/12/29 01:48:22;;;;;;;0.67;0.40;;;10.10;99.90;;;;;;5055347;28;20550;-76
2021/12/29 01:50:51;;;;;;;0.70;0.40;;;10.00;99.90;;;;;;5071722;28;20596;-75
2021/12/29 01:53:24;;;;;;;0.87;0.40;;;10.10;99.90;;;;;;5055656;28;20197;-76
2021/12/29 01:55:51;;;;;;;0.50;0.30;;;10.10;99.90;;;;;;5054930;28;20211;-77
2021/12/29 01:58:18;;;;;;;0.40;0.30;;;10.20;99.90;;;;;;5071723;28;20196;-76
2021/12/29 02:00:45;;;;;;;1.63;0.50;;;10.30;99.90;;;;;;5071944;28;20246;-79
2021/12/29 02:03:11;;;;;;;2.00;0.60;;;10.20;99.90;;;;;;5072742;28;20199;-75
2021/12/29 02:05:39;;;;;;;1.40;0.40;;;10.30;99.90;;;;;;5054537;28;20200;-75
2021/12/29 02:08:05;;;;;;;0.83;0.47;;;10.10;99.90;;;;;;5054756;28;20242;-79
2021/12/29 02:10:36;;;;;;;1.37;0.47;;;10.20;99.90;;;;;;5072982;28;20267;-75
2021/12/29 02:13:02;;;;;;;0.50;0.30;;;10.40;99.90;;;;;;5071478;28;20197;-76
2021/12/29 02:15:30;;;;;;;0.40;0.33;;;10.10;99.90;;;;;;5053462;28;20249;-76
2021/12/29 02:17:56;;;;;;;0.83;0.50;;;10.30;99.90;;;;;;5069373;28;20251;-75
2021/12/29 02:20:22;;;;;;;1.23;0.40;;;10.40;99.90;;;;;;5070348;28;20224;-75
2021/12/29 02:22:54;;;;;;;2.37;0.40;;;10.40;99.90;;;;;;5053482;28;20200;-78
2021/12/29 02:25:33;;;;;;;0.40;0.30;;;10.30;99.90;;;;;;5070844;28;20289;-77
2021/12/29 02:28:01;;;;;;;1.20;0.50;;;10.20;99.90;;;;;;5071138;28;20220;-76
2021/12/29 02:30:27;;;;;;;0.63;0.40;;;10.20;99.90;;;;;;5070930;28;20671;-78
2021/12/29 02:32:57;;;;;;;1.70;0.30;;;10.20;99.90;;;;;;5070023;28;20192;-78
2021/12/29 02:35:24;;;;;;;0.40;0.30;;;10.20;99.90;;;;;;5052947;28;20200;-78
2021/12/29 02:37:50;;;;;;;0.80;0.30;;;10.40;99.90;;;;;;5071065;28;20198;-76
2021/12/29 02:40:16;;;;;;;0.70;0.40;;;10.60;99.90;;;;;;5080730;28;20224;-78
2021/12/29 02:42:43;;;;;;;0.23;0.20;;;10.50;99.90;;;;;;5072753;28;20552;-79
2021/12/29 02:45:14;;;;;;;1.07;0.30;;;10.40;99.90;;;;;;5069406;28;20219;-78
2021/12/29 02:47:41;;;;;;;0.73;0.20;;;10.50;99.90;;;;;;5052400;28;20196;-75
2021/12/29 02:50:07;;;;;;;1.07;0.40;;;10.70;99.90;;;;;;5052756;28;20697;-77
2021/12/29 02:52:33;;;;;;;0.53;0.40;;;10.50;99.90;;;;;;5070751;28;20702;-75
2021/12/29 02:54:59;;;;;;;0.30;0.30;;;10.50;99.90;;;;;;5069156;28;20207;-78
2021/12/29 02:57:25;;;;;;;1.53;0.40;;;10.40;99.90;;;;;;5070402;28;20176;-76
2021/12/29 02:59:51;;;;;;;0.30;0.30;;;10.40;99.90;;;;;;5052787;28;20261;-75
2021/12/29 03:02:16;;;;;;;1.40;0.57;;;10.40;99.90;;;;;;5069402;28;20200;-76
2021/12/29 03:04:42;;;;;;;0.90;0.23;;;10.50;99.90;;;;;;5068926;28;20224;-78
2021/12/29 03:07:08;;;;;;;0.40;0.30;;;10.40;99.90;;;;;;5070399;28;20184;-76
2021/12/29 03:09:34;;;;;;;0.20;0.20;;;10.60;99.90;;;;;;5069090;28;20602;-77
2021/12/29 03:12:01;;;;;;;0.40;0.30;;;10.50;99.90;;;;;;5069243;28;20200;-78
2021/12/29 03:14:27;;;;;;;0.30;0.30;;;10.50;99.90;;;;;;5070278;28;20196;-77
2021/12/29 03:16:53;;;;;;;0.30;0.30;;;10.50;99.90;;;;;;5068749;28;20333;-78
2021/12/29 03:19:18;;;;;;;0.30;0.30;;;10.50;99.90;;;;;;5052316;28;20295;-77
2021/12/29 03:21:45;;;;;;;2.10;0.40;;;10.60;99.90;;;;;;5052201;28;20640;-78
2021/12/29 03:24:12;;;;;;;0.70;0.30;;;10.70;99.90;;;;;;5070324;28;20235;-78
2021/12/29 03:26:38;;;;;;;0.73;0.33;;;10.50;99.90;;;;;;5068618;28;20229;-76
2021/12/29 03:29:05;;;;;;;1.07;0.40;;;10.60;99.90;;;;;;5069867;28;20291;-78
2021/12/29 03:31:33;;;;;;;1.50;0.40;;;10.50;99.90;;;;;;5068893;28;20199;-75
2021/12/29 03:33:59;;;;;;;0.27;0.20;;;10.50;99.90;;;;;;5070146;28;20275;-76
2021/12/29 03:36:26;;;;;;;0.87;0.50;;;10.50;99.90;;;;;;5068697;28;20200;-79
2021/12/29 03:38:53;;;;;;;0.30;0.20;;;10.50;99.90;;;;;;5051905;28;20203;-77
2021/12/29 03:41:20;;;;;;;1.00;0.40;;;10.50;99.90;;;;;;5066818;28;20265;-76
2021/12/29 03:43:48;;;;;;;0.50;0.30;;;10.50;99.90;;;;;;5068519;28;20246;-77
2021/12/29 03:46:15;;;;;;;0.30;0.30;;;10.50;99.90;;;;;;5069366;28;20226;-79
2021/12/29 03:48:44;;;;;;;0.57;0.40;;;10.50;99.90;;;;;;5034924;28;20200;-76
2021/12/29 03:51:10;;;;;;;0.30;0.30;;;10.50;99.90;;;;;;5061994;28;20250;-76
2021/12/29 03:53:38;;;;;;;0.83;0.30;;;10.70;99.90;;;;;;5088178;28;20171;-77
2021/12/29 03:56:05;;;;;;;0.23;0.23;;;10.70;99.90;;;;;;5071651;28;20191;-80
2021/12/29 03:58:31;;;;;;;0.30;0.30;;;10.60;99.90;;;;;;5076691;28;20200;-75
2021/12/29 04:01:10;;;;;;;0.83;0.30;;;10.70;99.90;;;;;;5068350;28;20197;-75
2021/12/29 04:03:36;;;;;;;0.83;0.30;;;10.80;99.90;;;;;;5051241;28;20211;-75
2021/12/29 04:06:02;;;;;;;0.37;0.23;;;10.90;99.90;;;;;;5068542;28;20544;-75
2021/12/29 04:08:28;;;;;;;0.20;0.20;;;10.70;99.90;;;;;;5068263;28;20274;-75
2021/12/29 04:10:54;;;;;;;0.20;0.20;;;10.60;99.90;;;;;;5068490;28;20254;-76
2021/12/29 04:13:20;;;;;;;0.57;0.30;;;10.50;99.90;;;;;;5051661;28;20552;-78
2021/12/29 04:15:47;;;;;;;0.20;0.20;;;10.60;99.90;;;;;;5067869;28;20196;-79
2021/12/29 04:18:15;;;;;;;0.83;0.30;;;10.40;99.90;;;;;;5069627;28;20263;-75
2021/12/29 04:20:57;;;;;;;0.47;0.40;;;10.40;99.90;;;;;;5067915;28;20211;-75
2021/12/29 04:23:26;;;;;;;0.73;0.30;;;10.30;99.90;;;;;;5038698;28;20203;-78
2021/12/29 04:25:54;;;;;;;1.13;0.30;;;10.40;99.90;;;;;;5051220;28;20212;-75
2021/12/29 04:28:23;;;;;;;0.50;0.30;;;10.20;99.90;;;;;;5069721;28;20220;-78
2021/12/29 04:30:51;;;;;;;0.50;0.40;;;10.30;99.90;;;;;;5068221;28;20690;-76
2021/12/29 04:33:18;;;;;;;0.33;0.30;;;10.40;99.90;;;;;;5068045;28;20694;-75
2021/12/29 04:35:47;;;;;;;1.07;0.40;;;10.50;99.90;;;;;;5069336;28;20202;-75
2021/12/29 04:38:13;;;;;;;0.63;0.20;;;10.50;99.90;;;;;;5069782;28;20204;-75
2021/12/29 04:40:38;;;;;;;1.27;0.40;;;10.60;99.90;;;;;;5068048;28;20196;-75
2021/12/29 04:43:04;;;;;;;0.30;0.23;;;10.60;99.90;;;;;;5069363;28;20188;-78
2021/12/29 04:45:30;;;;;;;0.40;0.40;;;10.50;99.90;;;;;;5068776;28;20226;-78
2021/12/29 04:47:56;;;;;;;0.53;0.30;;;10.60;99.90;;;;;;5069661;28;20188;-78
2021/12/29 04:52:57;;;;;;;0.60;0.20;;;10.50;99.90;;;;;;5068072;28;20208;-79
2021/12/29 04:55:23;;;;;;;0.30;0.30;;;10.60;99.90;;;;;;5069177;28;20220;-80
2021/12/29 04:57:50;;;;;;;0.73;0.30;;;10.60;99.90;;;;;;5067845;28;20839;-79
2021/12/29 05:00:18;;;;;;;0.90;0.30;;;10.60;99.90;;;;;;5067836;28;20192;-75
2021/12/29 05:02:44;;;;;;;0.20;0.20;;;10.70;99.90;;;;;;5067440;28;20224;-75
2021/12/29 05:10:39;;;;;;;0.27;0.20;;;10.50;99.90;;;;;;5055292;28;20188;-74
2021/12/29 05:13:06;;;;;;;0.40;0.30;;;10.60;99.90;;;;;;5054744;28;20202;-79
2021/12/29 05:15:33;;;;;;;0.30;0.30;;;10.50;99.90;;;;;;5070758;28;20208;-78
2021/12/29 05:17:59;;;;;;;1.37;0.40;;;10.50;99.90;;;;;;5072452;28;20200;-75
2021/12/29 05:20:28;;;;;;;1.07;0.50;;;10.60;99.90;;;;;;5072240;28;20723;-78
2021/12/29 05:22:55;;;;;;;1.43;0.30;;;10.60;99.90;;;;;;5071311;28;20177;-74
2021/12/29 05:25:26;;;;;;;0.73;0.43;;;10.50;99.90;;;;;;5070824;28;20251;-75
2021/12/29 05:27:52;;;;;;;0.40;0.40;;;10.50;99.90;;;;;;5070975;28;20188;-77
2021/12/29 05:30:19;;;;;;;0.30;0.27;;;10.50;99.90;;;;;;5070858;28;20624;-75
2021/12/29 05:32:45;;;;;;;0.77;0.30;;;10.40;99.90;;;;;;5070953;28;20249;-79
2021/12/29 05:35:11;;;;;;;0.67;0.40;;;10.40;99.90;;;;;;5054116;28;20189;-79
2021/12/29 05:37:37;;;;;;;2.73;0.23;;;10.50;99.90;;;;;;5071902;28;20188;-76
2021/12/29 05:40:05;;;;;;;2.30;0.50;;;10.50;99.90;;;;;;5070866;28;20195;-78
2021/12/29 05:42:33;;;;;;;0.87;0.50;;;10.40;99.90;;;;;;5053943;28;20245;-79
2021/12/29 05:45:04;;;;;;;0.87;0.40;;;10.40;99.90;;;;;;5070429;28;20299;-76
2021/12/29 05:47:30;;;;;;;1.23;0.50;;;10.30;99.90;;;;;;5070813;28;20200;-77
2021/12/29 05:49:55;;;;;;;1.33;0.63;;;10.40;99.90;;;;;;5070533;28;20690;-76
2021/12/29 05:52:21;;;;;;;0.53;0.47;;;10.50;99.90;;;;;;5070319;28;20219;-79
2021/12/29 05:54:47;;;;;;;1.80;0.43;;;10.50;99.90;;;;;;5070528;28;20537;-77
2021/12/29 05:57:13;;;;;;;1.60;0.60;;;10.60;99.90;;;;;;5072097;28;20199;-78
2021/12/29 05:59:39;;;;;;;0.73;0.60;;;10.40;99.90;;;;;;5020591;28;20701;-78
2021/12/29 06:02:05;;;;;;;1.07;0.60;;;10.40;99.90;;;;;;5070273;28;20204;-78
2021/12/29 06:04:31;;;;;;;1.63;0.50;;;10.40;99.90;;;;;;5071420;28;20212;-79
2021/12/29 06:06:58;;;;;;;3.20;0.87;;;10.40;99.90;;;;;;5071666;28;20188;-76
2021/12/29 06:09:24;;;;;;;0.77;0.50;;;10.40;99.90;;;;;;5053206;28;20192;-77
2021/12/29 06:11:49;;;;;;;0.57;0.50;;;10.40;99.90;;;;;;5053555;28;20207;-75
2021/12/29 06:14:15;;;;;;;3.60;0.73;;;10.50;99.90;;;;;;5069841;28;20658;-75
2021/12/29 06:16:41;;;;;;;0.50;0.47;;;10.60;99.90;;;;;;5071214;28;20218;-75
2021/12/29 06:19:07;;;;;;;2.90;0.60;;;10.50;99.90;;;;;;5053590;28;20200;-76
2021/12/29 06:21:32;;;;;;;0.80;0.40;;;10.40;99.90;;;;;;5070840;28;20191;-75
2021/12/29 06:23:58;;;;;;;1.37;0.60;;;10.50;99.90;;;;;;5071204;28;20555;-78
2021/12/29 06:26:24;;;;;;;1.93;0.60;;;10.70;99.90;;;;;;5070977;28;20197;-78
2021/12/29 06:28:51;;;;;;;1.03;0.50;;;10.60;99.90;;;;;;5070994;28;20587;-75
2021/12/29 06:31:17;;;;;;;2.03;0.70;;;10.60;99.90;;;;;;5069772;28;20204;-78
2021/12/29 06:33:45;;;;;;;2.27;0.80;;;10.50;99.90;;;;;;5069773;28;20301;-76
2021/12/29 06:36:11;;;;;;;1.50;0.70;;;10.50;99.90;;;;;;5070555;28;20204;-79
2021/12/29 06:38:37;;;;;;;1.87;0.63;;;10.50;99.90;;;;;;5069850;28;20274;-75
2021/12/29 06:41:03;;;;;;;2.17;0.73;;;10.40;99.90;;;;;;5069283;28;20656;-76
2021/12/29 06:43:28;;;;;;;1.80;0.60;;;10.40;99.90;;;;;;5070497;28;20565;-75
2021/12/29 06:45:54;;;;;;;1.33;0.53;;;10.40;99.90;;;;;;5052501;28;20540;-76
2021/12/29 06:48:20;;;;;;;2.50;0.70;;;10.50;99.90;;;;;;5052833;28;20232;-76
2021/12/29 06:50:46;;;;;;;1.93;0.60;;;10.60;99.90;;;;;;5070963;28;20931;-76
2021/12/29 06:53:13;;;;;;;0.90;0.50;;;10.40;99.90;;;;;;5069391;28;20702;-79
2021/12/29 06:55:41;;;;;;;1.20;0.70;;;10.40;99.90;;;;;;5052592;28;20200;-78
2021/12/29 06:58:08;;;;;;;1.03;0.83;;;10.20;99.90;;;;;;5070574;28;20164;-76
2021/12/29 07:00:34;;;;;;;0.60;0.60;;;10.20;99.90;;;;;;5052936;28;20242;-78
2021/12/29 07:03:01;;;;;;;5.70;0.67;;;10.20;99.90;;;;;;5070471;28;20204;-79
2021/12/29 07:05:27;;;;;;;1.90;0.70;;;10.20;99.90;;;;;;5070293;28;20216;-78
2021/12/29 07:07:54;;;;;;;1.50;0.67;;;10.20;99.90;;;;;;5068830;28;20321;-77
2021/12/29 07:10:21;;;;;;;0.83;0.60;;;10.20;99.90;;;;;;5052258;28;20215;-76
2021/12/29 07:12:47;;;;;;;0.87;0.50;;;10.20;99.90;;;;;;5070895;28;20193;-75
2021/12/29 07:15:14;;;;;;;1.87;0.60;;;10.30;99.90;;;;;;5052391;28;20326;-79
2021/12/29 07:17:40;;;;;;;0.73;0.40;;;10.30;99.90;;;;;;5068495;28;20544;-79
2021/12/29 07:20:06;;;;;;;2.70;0.43;;;10.30;99.90;;;;;;5070300;28;20217;-79
2021/12/29 07:22:32;;;;;;;0.93;0.63;;;10.30;99.90;;;;;;5068318;28;20222;-79
2021/12/29 07:24:58;;;;;;;1.23;0.53;;;10.30;99.90;;;;;;5068540;28;20220;-79
2021/12/29 07:27:24;;;;;;;4.87;0.93;;;10.30;99.90;;;;;;5069490;28;20290;-79
2021/12/29 07:29:52;;;;;;;0.60;0.50;;;10.30;99.90;;;;;;5068561;28;20232;-78
2021/12/29 07:32:18;;;;;;;1.53;0.50;;;10.30;99.90;;;;;;5052540;28;20207;-81
2021/12/29 07:34:45;;;;;;;1.17;0.40;;;10.10;99.90;;;;;;5084452;28;20206;-75
2021/12/29 07:37:12;;;;;;;3.87;1.20;;;10.20;99.90;;;;;;5069947;28;20749;-76
2021/12/29 07:39:38;;;;;;;0.87;0.50;;;10.40;99.90;;;;;;5035178;28;20196;-78
2021/12/29 07:42:07;;;;;;;0.87;0.47;;;10.40;99.90;;;;;;5070021;28;20301;-79
2021/12/29 07:44:33;;;;;;;2.93;0.60;;;10.20;99.90;;;;;;5034440;28;20220;-76
2021/12/29 07:46:59;;;;;;;0.80;0.47;;;10.20;99.90;;;;;;5069932;28;20232;-75
2021/12/29 07:49:27;;;;;;;1.00;0.50;;;10.10;99.90;;;;;;5069672;28;20279;-76
2021/12/29 07:51:53;;;;;;;1.50;0.57;;;10.20;99.90;;;;;;5068455;28;20199;-79
2021/12/29 07:54:21;;;;;;;0.57;0.50;;;10.30;99.90;;;;;;5068190;28;20204;-78
2021/12/29 07:56:47;;;;;;;1.53;0.83;;;10.40;99.90;;;;;;5068232;28;20200;-78
2021/12/29 07:59:14;;;;;;;1.30;0.50;;;10.50;99.90;;;;;;5068088;28;20667;-78
2021/12/29 08:01:41;;;;;;;1.50;0.70;;;10.40;99.90;;;;;;5056531;28;20208;-75
2021/12/29 08:04:10;;;;;;;0.90;0.73;;;10.40;99.90;;;;;;5064649;28;20221;-77
2021/12/29 08:06:36;;;;;;;1.70;1.10;;;10.40;99.90;;;;;;5047751;28;20212;-78
2021/12/29 08:09:04;;;;;;;4.30;2.80;;;10.40;99.90;;;;;;5049753;28;20193;-79
2021/12/29 08:11:29;;;;;;;4.67;2.00;;;10.30;99.90;;;;;;5047962;28;20193;-76
2021/12/29 08:13:55;;;;;;;2.80;0.97;;;10.40;99.90;;;;;;5048146;28;20196;-79
2021/12/29 08:16:22;;;;;;;0.87;0.60;;;10.40;99.90;;;;;;5047543;28;20271;-78
2021/12/29 08:18:48;;;;;;;0.83;0.60;;;10.50;99.90;;;;;;5048410;28;20239;-76
2021/12/29 08:21:15;;;;;;;0.70;0.60;;;10.50;99.90;;;;;;5047930;28;20201;-76
2021/12/29 08:23:43;;;;;;;0.90;0.60;;;10.40;99.90;;;;;;5047964;28;20183;-79
2021/12/29 08:26:08;;;;;;;1.87;0.83;;;10.40;99.90;;;;;;5047485;28;20228;-78
2021/12/29 08:28:34;;;;;;;1.03;0.47;;;10.50;99.90;;;;;;5068074;28;20236;-78
2021/12/29 08:31:00;;;;;;;2.10;0.90;;;10.60;99.90;;;;;;5070322;28;20846;-78
2021/12/29 08:33:26;;;;;;;1.00;0.60;;;10.60;99.90;;;;;;5067415;28;20214;-75
2021/12/29 08:35:52;;;;;;;2.33;0.73;;;10.70;99.90;;;;;;5069120;28;20204;-76
2021/12/29 08:38:18;;;;;;;1.73;0.67;;;10.70;99.90;;;;;;5068825;28;20196;-75
2021/12/29 08:40:44;;;;;;;1.77;0.77;;;10.80;99.90;;;;;;5067373;28;20719;-78
2021/12/29 08:43:11;;;;;;;2.10;1.27;;;10.80;99.90;;;;;;5064812;28;20207;-75
2021/12/29 08:45:37;;;;;;;2.97;0.90;;;10.70;99.90;;;;;;5052332;28;20216;-75
2021/12/29 08:48:04;;;;;;;1.67;0.80;;;10.60;99.90;;;;;;5087351;28;20206;-79
2021/12/29 08:50:31;;;;;;;0.77;0.50;;;10.50;99.90;;;;;;5085608;28;20208;-78
2021/12/29 08:53:02;;;;;;;0.80;0.57;;;10.70;99.90;;;;;;5071429;28;20192;-77
2021/12/29 08:55:28;;;;;;;1.07;0.60;;;10.80;99.90;;;;;;5053441;28;20663;-78
2021/12/29 08:57:54;;;;;;;6.20;3.83;;;10.90;99.90;;;;;;5070536;28;20639;-76
2021/12/29 09:00:21;;;;;;;4.83;3.53;;;10.90;99.90;;;;;;5053066;28;20216;-76
2021/12/29 09:02:48;;;;;;;2.17;1.17;;;10.80;99.90;;;;;;5072572;28;20200;-80
2021/12/29 09:05:16;;;;;;;1.43;0.80;;;10.70;99.90;;;;;;5056362;28;20220;-79
2021/12/29 09:07:43;;;;;;;1.37;0.83;;;10.80;99.90;;;;;;5071781;28;20673;-78
2021/12/29 09:10:10;;;;;;;2.57;1.00;;;10.90;99.90;;;;;;5070990;28;20236;-77
2021/12/29 09:12:37;;;;;;;3.23;1.30;;;11.00;99.90;;;;;;5065730;28;20199;-78
2021/12/29 09:15:05;;;;;;;1.43;0.93;;;11.10;99.90;;;;;;5053167;28;20216;-78
2021/12/29 09:17:31;;;;;;;2.17;0.80;;;11.10;99.90;;;;;;5071289;28;20196;-79
2021/12/29 09:19:57;;;;;;;3.00;0.60;;;11.00;99.90;;;;;;5070280;28;20489;-76
2021/12/29 09:22:23;;;;;;;3.17;2.30;;;10.90;99.90;;;;;;5070270;28;20200;-75
2021/12/29 09:24:49;;;;;;;2.67;1.37;;;10.80;99.90;;;;;;5069743;28;20231;-79
2021/12/29 09:27:17;;;;;;;1.67;1.10;;;10.90;99.90;;;;;;5070326;28;20583;-77
2021/12/29 09:29:43;;;;;;;1.20;0.80;;;11.20;99.90;;;;;;5054754;28;20250;-75
2021/12/29 09:32:10;;;;;;;1.87;0.73;;;11.20;99.90;;;;;;5071321;28;20341;-84
2021/12/29 09:34:37;;;;;;;1.90;1.10;;;11.20;99.90;;;;;;5071647;28;20287;-76
2021/12/29 09:37:06;;;;;;;2.70;1.00;;;11.20;99.90;;;;;;5073137;28;20535;-79
2021/12/29 09:39:32;;;;;;;3.27;0.93;;;11.30;99.90;;;;;;5070966;28;20231;-80
2021/12/29 09:41:58;;;;;;;1.80;1.13;;;11.30;99.90;;;;;;5087915;28;20677;-80
2021/12/29 09:44:24;;;;;;;2.97;0.80;;;11.20;99.90;;;;;;5038078;28;20231;-75
2021/12/29 09:46:54;;;;;;;3.23;1.07;;;11.30;99.90;;;;;;5088554;28;20292;-85
2021/12/29 09:49:21;;;;;;;4.03;1.03;;;11.30;99.90;;;;;;5037760;28;20261;-81
2021/12/29 09:51:51;;;;;;;2.90;0.90;;;11.30;99.90;;;;;;5071847;28;20196;-78
2021/12/29 09:54:20;;;;;;;0.60;0.50;;;11.20;99.90;;;;;;5066643;28;20207;-79
2021/12/29 09:56:46;;;;;;;2.23;0.53;;;11.30;99.90;;;;;;5069187;28;20196;-80
2021/12/29 09:59:12;;;;;;;1.17;0.60;;;11.30;99.90;;;;;;5070655;28;20260;-80
2021/12/29 10:01:39;;;;;;;2.27;0.60;;;11.20;99.90;;;;;;5072025;28;20686;-76
2021/12/29 10:04:05;;;;;;;1.47;1.20;;;11.40;99.90;;;;;;5069483;28;20691;-80
2021/12/29 10:06:31;;;;;;;2.30;1.30;;;11.30;99.90;;;;;;5071261;28;20655;-80
2021/12/29 10:08:57;;;;;;;0.80;0.60;;;11.30;99.90;;;;;;5086833;28;20611;-77
2021/12/29 10:11:30;;;;;;;9.30;4.47;;;11.50;99.90;;;;;;5069243;28;20554;-76
2021/12/29 10:13:56;;;;;;;2.30;1.20;;;11.40;99.90;;;;;;5085509;28;20196;-76
2021/12/29 10:16:26;;;;;;;2.43;1.40;;;11.60;99.90;;;;;;5069467;28;20482;-81
2021/12/29 10:18:59;;;;;;;1.87;1.40;;;11.40;99.90;;;;;;5087056;28;20231;-82
2021/12/29 10:21:26;;;;;;;3.73;1.40;;;11.40;99.90;;;;;;5087044;28;20686;-81
2021/12/29 10:23:54;;;;;;;2.40;0.70;;;11.40;99.90;;;;;;5069946;28;20196;-77
2021/12/29 10:26:27;;;;;;;6.80;2.97;;;11.60;99.90;;;;;;5063612;28;20642;-78
2021/12/29 10:28:56;;;;;;;7.50;4.90;;;11.40;99.90;;;;;;5051526;28;20607;-78
2021/12/29 10:31:28;;;;;;;2.97;1.10;;;11.50;99.90;;;;;;5069305;28;20353;-80
2021/12/29 10:33:58;;;;;;;1.63;0.80;;;11.30;99.90;;;;;;5068374;28;21225;-84
2021/12/29 10:36:45;;;;;;;1.90;0.70;;;11.30;99.90;;;;;;5060223;28;20227;-82
2021/12/29 10:39:13;;;;;;;2.07;0.80;;;11.30;99.90;;;;;;5064996;28;20220;-83
2021/12/29 10:41:58;;;;;;;1.53;0.70;;;11.20;99.90;;;;;;5069849;28;20234;-82
2021/12/29 10:44:55;;;;;;;1.10;0.87;;;11.30;99.90;;;;;;5069100;28;20212;-79
2021/12/29 10:47:22;;;;;;;1.10;0.50;;;11.30;99.90;;;;;;5033383;28;20319;-85
2021/12/29 10:50:08;;;;;;;0.87;0.50;;;11.40;99.90;;;;;;5068551;28;20228;-78
2021/12/29 10:52:41;;;;;;;1.07;0.40;;;11.20;99.90;;;;;;5068325;28;21086;-83
2021/12/29 10:55:17;;;;;;;0.77;0.60;;;11.10;99.90;;;;;;5052276;28;20280;-83
2021/12/29 10:57:44;;;;;;;2.10;0.73;;;11.20;99.90;;;;;;5074400;28;20231;-77
2021/12/29 11:00:16;;;;;;;1.80;0.80;;;11.30;99.90;;;;;;5042429;28;20213;-78
2021/12/29 11:02:42;;;;;;;1.30;0.83;;;11.40;99.90;;;;;;5066721;28;20231;-79
2021/12/29 11:05:12;;;;;;;1.10;0.70;;;11.50;99.90;;;;;;5036527;28;20758;-78
2021/12/29 11:07:40;;;;;;;1.10;0.70;;;11.40;99.90;;;;;;5067614;28;20659;-84
2021/12/29 11:10:10;;;;;;;3.00;1.70;;;11.40;99.90;;;;;;5065092;28;20201;-82
2021/12/29 11:12:54;;;;;;;4.40;1.40;;;11.40;99.90;;;;;;5068553;28;20226;-78
2021/12/29 11:15:37;;;;;;;2.00;1.00;;;11.30;99.90;;;;;;5066578;28;20215;-83
2021/12/29 11:18:07;;;;;;;1.33;0.67;;;11.30;99.90;;;;;;5053093;28;20200;-83
2021/12/29 11:20:34;;;;;;;3.00;0.57;;;11.40;99.90;;;;;;5069000;28;20204;-83
2021/12/29 11:23:14;;;;;;;2.03;0.80;;;11.40;99.90;;;;;;5070163;28;20196;-82
2021/12/29 11:25:43;;;;;;;2.53;0.97;;;11.40;99.90;;;;;;5070007;28;20220;-77
2021/12/29 11:28:27;;;;;;;0.83;0.67;;;11.40;99.90;;;;;;5066634;28;20204;-76
2021/12/29 11:30:58;;;;;;;2.87;0.80;;;11.40;99.90;;;;;;5066694;28;20220;-79
2021/12/29 11:33:28;;;;;;;2.60;1.03;;;11.60;99.90;;;;;;5080866;28;20391;-78
2021/12/29 11:35:54;;;;;;;4.40;2.30;;;11.60;99.90;;;;;;5066038;28;20216;-76
2021/12/29 11:38:23;;;;;;;2.90;1.50;;;11.60;99.90;;;;;;5047833;28;20289;-78
2021/12/29 11:40:52;;;;;;;1.97;1.00;;;11.50;99.90;;;;;;5049207;28;20299;-77
2021/12/29 11:43:20;;;;;;;4.07;1.77;;;11.50;99.90;;;;;;5051599;28;20204;-76
2021/12/29 11:45:49;;;;;;;2.07;1.27;;;11.40;99.90;;;;;;5052500;28;20236;-75
2021/12/29 11:48:20;;;;;;;1.13;0.80;;;11.60;99.90;;;;;;5036194;28;20211;-78
2021/12/29 11:50:52;;;;;;;2.30;0.70;;;11.50;99.90;;;;;;5035953;28;20184;-75
2021/12/29 11:53:38;;;;;;;1.87;0.60;;;11.40;99.90;;;;;;5035722;28;20543;-79
2021/12/29 11:56:14;;;;;;;1.03;0.60;;;11.60;99.90;;;;;;5054308;28;20227;-75
2021/12/29 11:58:42;;;;;;;1.90;0.90;;;11.50;99.90;;;;;;5053675;28;20231;-78
2021/12/29 12:01:10;;;;;;;3.80;0.70;;;11.60;99.90;;;;;;5052512;28;20207;-78
2021/12/29 12:03:44;;;;;;;3.10;1.00;;;11.60;99.90;;;;;;5070530;28;20197;-77
2021/12/29 12:06:26;;;;;;;1.43;0.80;;;11.50;99.90;;;;;;5070637;28;20682;-78
2021/12/29 12:09:15;;;;;;;3.10;1.00;;;11.40;99.90;;;;;;5070752;28;20279;-78
2021/12/29 12:11:50;;;;;;;3.73;1.10;;;11.40;99.90;;;;;;5070554;28;20228;-75
2021/12/29 12:14:31;;;;;;;1.73;0.77;;;11.50;99.90;;;;;;5052471;28;20195;-76
2021/12/29 12:17:21;;;;;;;1.90;0.73;;;11.60;99.90;;;;;;5070624;28;20198;-78
2021/12/29 12:20:01;;;;;;;1.50;0.83;;;11.70;99.90;;;;;;5069220;28;20686;-77
2021/12/29 12:22:29;;;;;;;2.23;1.17;;;11.60;99.90;;;;;;5052146;28;20223;-79
2021/12/29 12:24:54;;;;;;;3.80;1.13;;;11.50;99.90;;;;;;5019390;28;20306;-76
2021/12/29 12:27:32;;;;;;;2.03;0.90;;;11.90;99.90;;;;;;5068604;28;20283;-77
2021/12/29 12:30:05;;;;;;;3.37;1.07;;;12.00;99.90;;;;;;5070412;28;20600;-75
2021/12/29 12:32:51;;;;;;;3.83;1.27;;;11.80;99.90;;;;;;5068818;28;20266;-77
2021/12/29 12:35:31;;;;;;;4.90;1.20;;;11.80;99.90;;;;;;5051971;28;20196;-78
2021/12/29 12:37:58;;;;;;;2.30;0.70;;;11.70;99.90;;;;;;5068386;28;20563;-78
2021/12/29 12:40:31;;;;;;;2.73;1.17;;;11.60;99.90;;;;;;5068532;28;20200;-76
2021/12/29 12:43:10;;;;;;;3.07;1.03;;;11.60;99.90;;;;;;5052067;28;20301;-76
2021/12/29 12:45:38;;;;;;;5.53;1.40;;;11.80;99.90;;;;;;5068286;28;20220;-76
2021/12/29 12:48:08;;;;;;;4.83;1.30;;;11.70;99.90;;;;;;5068450;28;20199;-76
2021/12/29 12:50:36;;;;;;;2.93;1.20;;;11.70;99.90;;;;;;5069357;28;20341;-78
2021/12/29 12:53:03;;;;;;;5.10;1.43;;;11.80;99.90;;;;;;5069860;28;20302;-78
2021/12/29 12:55:32;;;;;;;4.70;1.87;;;11.90;99.90;;;;;;5067911;28;20180;-74
2021/12/29 12:58:14;;;;;;;5.23;1.40;;;11.90;99.90;;;;;;5069863;28;20227;-76
2021/12/29 13:00:47;;;;;;;3.00;1.23;;;11.90;99.90;;;;;;5069661;28;20651;-77